Time;durP1;ratioP1;P1;durP2;ratioP2;P2;SDS_P1;SDS_P2;PMS_P1;PMS_P2;Temp;Humidity;BMP_temperature;BMP_pressure;BME280_temperature;BME280_humidity;BME280_pressure;Samples;Min_cycle;Max_cycle;Signal;HPM_P1;HPM_P2
2023/06/23 00:01:22;;;;;;;21.45;18.10;;;19.00;99.90;;;;;;5032579;28;20223;-65
2023/06/23 00:03:48;;;;;;;20.58;18.48;;;18.10;99.90;;;;;;5047782;28;20453;-66
2023/06/23 00:06:15;;;;;;;22.13;19.73;;;17.70;99.90;;;;;;5051931;28;20037;-67
2023/06/23 00:08:42;;;;;;;21.88;19.55;;;17.90;1.00;;;;;;5049239;28;20037;-67
2023/06/23 00:11:11;;;;;;;23.42;19.05;;;18.60;1.00;;;;;;5031343;28;20033;-66
2023/06/23 00:13:37;;;;;;;22.35;18.23;;;18.60;1.00;;;;;;5048509;28;20048;-65
2023/06/23 00:16:05;;;;;;;22.08;17.98;;;18.50;1.00;;;;;;5050332;28;20548;-66
2023/06/23 00:18:35;;;;;;;20.45;18.25;;;18.00;1.00;;;;;;5045613;28;20036;-66
2023/06/23 00:21:03;;;;;;;23.48;21.05;;;17.80;1.00;;;;;;5033073;28;20041;-67
2023/06/23 00:23:30;;;;;;;22.85;20.48;;;18.70;1.00;;;;;;5052365;28;20513;-65
2023/06/23 00:25:57;;;;;;;22.77;20.38;;;17.90;1.00;;;;;;5049655;28;20032;-66
2023/06/23 00:28:22;;;;;;;24.38;21.77;;;18.20;1.00;;;;;;5051906;28;20112;-65
2023/06/23 00:30:49;;;;;;;25.63;21.85;;;18.70;1.00;;;;;;5027153;28;20235;-65
2023/06/23 00:33:15;;;;;;;25.17;21.42;;;18.70;1.00;;;;;;5030752;28;20091;-66
2023/06/23 00:35:41;;;;;;;24.20;21.60;;;17.70;1.00;;;;;;5039601;28;20037;-65
2023/06/23 00:38:07;;;;;;;26.30;23.35;;;17.70;1.00;;;;;;5051048;28;20063;-65
2023/06/23 00:40:34;;;;;;;27.58;22.55;;;17.60;1.00;;;;;;5050541;28;20040;-65
2023/06/23 00:43:00;;;;;;;24.75;20.95;;;19.20;1.00;;;;;;5043778;28;20033;-66
2023/06/23 00:45:26;;;;;;;23.58;21.10;;;17.70;1.00;;;;;;5051209;28;20045;-65
2023/06/23 00:47:52;;;;;;;24.98;22.10;;;18.20;1.00;;;;;;5047056;28;20052;-65
2023/06/23 00:50:20;;;;;;;26.52;23.65;;;17.70;1.00;;;;;;5033076;28;20044;-65
2023/06/23 00:52:51;;;;;;;24.70;22.00;;;18.40;1.00;;;;;;5050596;28;20041;-66
2023/06/23 00:55:21;;;;;;;28.67;22.58;;;17.80;1.00;;;;;;5050273;28;20079;-65
2023/06/23 00:57:49;;;;;;;26.25;23.30;;;17.10;1.00;;;;;;5048182;28;20037;-67
2023/06/23 01:00:17;;;;;;;22.55;19.73;;;18.30;1.00;;;;;;5047112;28;20037;-65
2023/06/23 01:03:03;;;;;;;22.35;19.95;;;17.70;1.00;;;;;;5033039;28;20040;-65
2023/06/23 01:05:36;;;;;;;23.92;20.95;;;17.20;1.00;;;;;;5026813;28;20144;-65
2023/06/23 01:08:26;;;;;;;23.48;20.85;;;17.30;1.00;;;;;;5046215;28;20032;-65
2023/06/23 01:10:59;;;;;;;29.45;22.85;;;17.80;1.00;;;;;;5050504;28;20111;-64
2023/06/23 01:13:53;;;;;;;25.48;22.73;;;16.90;1.00;;;;;;5033733;28;20074;-65
2023/06/23 01:16:29;;;;;;;26.42;23.60;;;17.40;1.00;;;;;;5045881;28;20156;-67
2023/06/23 01:19:11;;;;;;;25.42;21.83;;;17.20;1.00;;;;;;5050664;28;20142;-65
2023/06/23 01:21:48;;;;;;;26.27;23.48;;;17.50;1.00;;;;;;5048368;28;20056;-67
2023/06/23 01:24:47;;;;;;;27.45;23.67;;;17.90;1.00;;;;;;5049998;28;20095;-65
2023/06/23 01:27:21;;;;;;;26.70;22.25;;;17.10;1.00;;;;;;5032142;28;20123;-65
2023/06/23 01:29:50;;;;;;;25.65;22.77;;;17.10;1.00;;;;;;5049401;28;20033;-67
2023/06/23 01:32:20;;;;;;;27.80;24.80;;;17.10;1.00;;;;;;5048492;28;20048;-65
2023/06/23 01:34:50;;;;;;;27.63;24.20;;;16.90;1.00;;;;;;5029069;28;20044;-65
2023/06/23 01:37:21;;;;;;;26.05;23.35;;;17.20;1.00;;;;;;5050194;28;20051;-65
2023/06/23 01:40:13;;;;;;;28.30;25.08;;;17.30;1.00;;;;;;5046580;28;20040;-65
2023/06/23 01:42:43;;;;;;;29.38;26.38;;;17.20;1.00;;;;;;5043158;28;20108;-65
2023/06/23 01:45:11;;;;;;;30.70;26.85;;;17.20;10.90;;;;;;5031407;28;20040;-65
2023/06/23 01:47:40;;;;;;;29.65;25.02;;;16.90;15.40;;;;;;5047971;28;20032;-66
2023/06/23 01:50:08;;;;;;;31.10;27.70;;;17.10;14.40;;;;;;5049756;28;20045;-67
2023/06/23 01:52:37;;;;;;;33.47;27.95;;;17.00;16.90;;;;;;5032673;28;20045;-65
2023/06/23 01:55:05;;;;;;;33.58;29.33;;;17.50;16.20;;;;;;5048982;28;20056;-65
2023/06/23 01:57:33;;;;;;;33.25;29.17;;;17.00;23.40;;;;;;5046350;28;20775;-65
2023/06/23 02:00:01;;;;;;;35.00;31.17;;;16.80;40.10;;;;;;5048728;28;20391;-65
2023/06/23 02:02:27;;;;;;;35.83;32.13;;;16.70;41.30;;;;;;5050467;28;20044;-65
2023/06/23 02:04:55;;;;;;;42.22;36.67;;;17.00;58.30;;;;;;5048583;28;20094;-67
2023/06/23 02:07:22;;;;;;;39.38;35.10;;;17.00;76.60;;;;;;5048482;28;20418;-65
2023/06/23 02:09:49;;;;;;;39.75;35.50;;;16.90;87.10;;;;;;5049886;28;20048;-65
2023/06/23 02:12:16;;;;;;;42.72;38.20;;;16.90;98.90;;;;;;5048991;28;20071;-64
2023/06/23 02:14:44;;;;;;;39.85;35.80;;;17.20;99.50;;;;;;5031565;28;20538;-65
2023/06/23 02:17:12;;;;;;;39.63;35.33;;;17.20;99.90;;;;;;5030484;28;20037;-67
2023/06/23 02:19:43;;;;;;;39.72;35.42;;;17.10;99.90;;;;;;5049990;28;20166;-65
2023/06/23 02:22:19;;;;;;;38.85;34.85;;;17.00;99.90;;;;;;5027822;28;20063;-64
2023/06/23 02:24:47;;;;;;;41.13;35.58;;;16.50;99.90;;;;;;5049251;28;20088;-66
2023/06/23 02:27:13;;;;;;;38.20;33.83;;;17.20;99.90;;;;;;5031013;28;20059;-65
2023/06/23 02:29:41;;;;;;;37.40;33.55;;;17.00;99.90;;;;;;5049842;28;20513;-64
2023/06/23 02:32:16;;;;;;;38.08;32.75;;;16.60;99.90;;;;;;5045671;28;20034;-65
2023/06/23 02:34:46;;;;;;;40.20;35.85;;;17.40;99.90;;;;;;5041114;28;20040;-66
2023/06/23 02:37:16;;;;;;;37.80;33.47;;;16.80;99.90;;;;;;5047810;28;20034;-64
2023/06/23 02:39:47;;;;;;;34.05;30.50;;;16.90;99.90;;;;;;5031912;28;20037;-65
2023/06/23 02:42:15;;;;;;;38.50;33.67;;;16.90;99.90;;;;;;5049149;28;20040;-66
2023/06/23 02:44:58;;;;;;;30.90;27.67;;;16.70;99.90;;;;;;5046496;28;20040;-65
2023/06/23 02:47:25;;;;;;;37.15;32.30;;;17.00;99.90;;;;;;5049680;28;20045;-67
2023/06/23 02:49:54;;;;;;;37.63;32.13;;;17.10;99.90;;;;;;5030432;28;20041;-64
2023/06/23 02:52:21;;;;;;;33.55;29.42;;;16.80;99.90;;;;;;5031657;28;20060;-65
2023/06/23 02:54:50;;;;;;;32.88;26.98;;;16.90;99.90;;;;;;5047907;28;20048;-65
2023/06/23 02:57:18;;;;;;;34.47;29.40;;;16.70;99.90;;;;;;5043479;28;20117;-65
2023/06/23 02:59:46;;;;;;;30.98;25.55;;;17.10;99.90;;;;;;5049497;28;20061;-65
2023/06/23 03:02:15;;;;;;;33.08;26.70;;;16.70;99.90;;;;;;5053240;28;20055;-65
2023/06/23 03:04:41;;;;;;;31.00;25.67;;;16.70;99.90;;;;;;5032647;28;20048;-65
2023/06/23 03:07:10;;;;;;;29.90;24.85;;;16.60;99.90;;;;;;5030297;28;20403;-65
2023/06/23 03:09:36;;;;;;;31.58;26.60;;;16.70;99.90;;;;;;5050268;28;20124;-65
2023/06/23 03:12:02;;;;;;;28.73;25.38;;;16.60;99.90;;;;;;5047494;28;20037;-65
2023/06/23 03:14:28;;;;;;;27.85;24.40;;;16.50;99.90;;;;;;5049539;28;20049;-64
2023/06/23 03:17:11;;;;;;;27.60;22.88;;;17.00;99.90;;;;;;5044671;28;20037;-65
2023/06/23 03:19:51;;;;;;;29.55;24.40;;;16.10;99.90;;;;;;5046386;28;20053;-65
2023/06/23 03:22:29;;;;;;;27.48;22.00;;;16.80;99.90;;;;;;5033911;28;20056;-65
2023/06/23 03:25:02;;;;;;;28.15;22.88;;;16.70;99.90;;;;;;5052753;28;20044;-65
2023/06/23 03:27:31;;;;;;;28.15;22.58;;;16.40;99.90;;;;;;5049040;28;20091;-65
2023/06/23 03:30:07;;;;;;;28.52;22.70;;;16.80;99.90;;;;;;5050058;28;20036;-65
2023/06/23 03:32:39;;;;;;;24.55;19.90;;;16.40;99.90;;;;;;5029671;28;20075;-65
2023/06/23 03:35:10;;;;;;;29.48;20.27;;;17.00;99.90;;;;;;5034455;28;20081;-65
2023/06/23 03:37:39;;;;;;;26.55;20.02;;;16.90;99.90;;;;;;5052394;28;20076;-66
2023/06/23 03:40:11;;;;;;;21.75;18.77;;;17.00;99.90;;;;;;5032370;28;20087;-65
2023/06/23 03:42:43;;;;;;;25.75;20.13;;;16.90;99.90;;;;;;5052236;28;20052;-65
2023/06/23 03:45:12;;;;;;;25.45;19.60;;;16.90;99.90;;;;;;5047560;28;20078;-67
2023/06/23 03:47:41;;;;;;;25.02;19.25;;;16.40;99.90;;;;;;5034658;28;20091;-65
2023/06/23 03:50:13;;;;;;;22.67;19.23;;;16.50;99.90;;;;;;5049049;28;20044;-65
2023/06/23 03:52:42;;;;;;;27.77;18.52;;;16.70;99.90;;;;;;5052441;28;20037;-65
2023/06/23 03:55:11;;;;;;;25.00;17.23;;;16.60;99.90;;;;;;5033143;28;20099;-65
2023/06/23 03:57:38;;;;;;;23.60;17.33;;;16.50;99.90;;;;;;5052597;28;20043;-66
2023/06/23 04:00:04;;;;;;;24.10;18.83;;;17.10;99.90;;;;;;5051179;28;20087;-64
2023/06/23 04:02:32;;;;;;;26.83;18.65;;;17.00;99.90;;;;;;5045718;28;20078;-66
2023/06/23 04:05:00;;;;;;;22.08;16.85;;;16.60;99.90;;;;;;5032856;28;20116;-65
2023/06/23 04:07:28;;;;;;;22.40;18.17;;;17.20;99.90;;;;;;5046522;28;20071;-67
2023/06/23 04:09:55;;;;;;;22.85;18.65;;;17.20;99.90;;;;;;5024597;28;20155;-64
2023/06/23 04:12:23;;;;;;;22.25;17.00;;;16.20;99.90;;;;;;5049854;28;20052;-66
2023/06/23 04:14:52;;;;;;;21.60;16.73;;;16.80;99.90;;;;;;5049204;28;20033;-65
2023/06/23 04:17:23;;;;;;;24.08;17.45;;;16.30;99.90;;;;;;5047423;28;20033;-64
2023/06/23 04:19:54;;;;;;;26.45;20.15;;;16.80;99.90;;;;;;5038150;28;20041;-67
2023/06/23 04:22:22;;;;;;;20.63;16.98;;;16.60;99.90;;;;;;5050623;28;20114;-63
2023/06/23 04:24:49;;;;;;;25.80;18.88;;;16.90;99.90;;;;;;5049892;28;20167;-64
2023/06/23 04:27:18;;;;;;;23.23;17.45;;;16.30;99.90;;;;;;5032737;28;20483;-64
2023/06/23 04:29:46;;;;;;;22.73;17.48;;;17.30;99.90;;;;;;5051869;28;20036;-68
2023/06/23 04:32:13;;;;;;;22.55;17.15;;;16.90;99.90;;;;;;5033072;28;20037;-68
2023/06/23 04:34:39;;;;;;;25.70;18.45;;;16.90;99.90;;;;;;5033227;28;20045;-64
2023/06/23 04:37:07;;;;;;;25.80;18.73;;;17.20;99.90;;;;;;5049331;28;20029;-64
2023/06/23 04:39:48;;;;;;;26.80;17.70;;;17.10;99.90;;;;;;5050809;28;20044;-64
2023/06/23 04:42:16;;;;;;;24.15;18.27;;;16.90;99.90;;;;;;5049049;28;20037;-64
2023/06/23 04:44:52;;;;;;;23.38;17.40;;;17.50;99.90;;;;;;5049594;28;20048;-64
2023/06/23 04:47:22;;;;;;;22.75;17.83;;;16.60;99.90;;;;;;5046617;28;20121;-64
2023/06/23 04:49:56;;;;;;;24.63;17.63;;;17.00;99.90;;;;;;5049378;28;20068;-65
2023/06/23 04:52:22;;;;;;;21.80;16.40;;;17.20;99.90;;;;;;5041598;28;20049;-65
2023/06/23 04:54:51;;;;;;;21.48;16.30;;;16.60;99.90;;;;;;5047194;28;20044;-64
2023/06/23 04:57:23;;;;;;;20.67;15.85;;;17.30;99.90;;;;;;5044923;28;20041;-64
2023/06/23 04:59:54;;;;;;;22.52;16.92;;;17.70;99.90;;;;;;5050007;28;20033;-64
2023/06/23 05:02:21;;;;;;;19.35;15.48;;;17.60;99.90;;;;;;5047891;28;20040;-67
2023/06/23 05:04:48;;;;;;;19.42;15.25;;;17.20;99.90;;;;;;5084254;22;20459;-53
2023/06/23 05:07:16;;;;;;;21.63;15.85;;;17.70;99.90;;;;;;5071054;28;20028;-57
2023/06/23 05:09:47;;;;;;;19.50;13.93;;;16.90;99.90;;;;;;5066399;28;20072;-55
2023/06/23 05:12:16;;;;;;;20.65;14.80;;;16.40;99.90;;;;;;5081028;28;20028;-54
2023/06/23 05:14:43;;;;;;;22.73;15.38;;;17.20;99.90;;;;;;5056248;28;20036;-52
2023/06/23 05:17:11;;;;;;;20.35;15.27;;;17.20;99.90;;;;;;5054519;28;20160;-53
2023/06/23 05:19:39;;;;;;;20.05;14.30;;;17.00;99.90;;;;;;5079507;28;20067;-56
2023/06/23 05:22:08;;;;;;;19.27;14.75;;;17.70;99.90;;;;;;5072070;28;20048;-52
2023/06/23 05:24:38;;;;;;;21.25;14.93;;;18.00;99.90;;;;;;5071594;28;20040;-52
2023/06/23 05:27:08;;;;;;;20.25;13.70;;;17.50;99.90;;;;;;5085271;28;20401;-52
2023/06/23 05:29:40;;;;;;;20.15;14.85;;;17.80;99.90;;;;;;5082871;28;20055;-52
2023/06/23 05:32:08;;;;;;;22.70;14.95;;;16.70;99.90;;;;;;5082444;28;20542;-52
2023/06/23 05:34:35;;;;;;;20.52;15.38;;;17.90;99.90;;;;;;5081205;28;20051;-52
2023/06/23 05:37:03;;;;;;;19.70;14.95;;;17.80;99.90;;;;;;5164894;22;20132;-63
2023/06/23 05:39:31;;;;;;;20.08;14.63;;;17.70;99.90;;;;;;5081439;28;20550;-63
2023/06/23 05:41:57;;;;;;;18.85;15.00;;;17.50;99.90;;;;;;5089789;28;20147;-63
2023/06/23 05:44:22;;;;;;;20.02;14.75;;;17.60;99.90;;;;;;5062285;28;20462;-63
2023/06/23 05:46:53;;;;;;;17.77;14.27;;;17.90;99.90;;;;;;5088468;28;20138;-63
2023/06/23 05:49:22;;;;;;;21.08;14.85;;;17.30;99.90;;;;;;5082254;28;20032;-63
2023/06/23 05:51:54;;;;;;;17.38;12.70;;;17.50;99.90;;;;;;5089115;28;20047;-63
2023/06/23 05:54:22;;;;;;;18.83;15.30;;;17.60;99.90;;;;;;5078605;28;20051;-63
2023/06/23 05:56:57;;;;;;;18.80;15.63;;;17.70;99.90;;;;;;5084639;28;20047;-63
2023/06/23 05:59:46;;;;;;;18.67;14.68;;;17.70;99.90;;;;;;5082491;28;20040;-62
2023/06/23 06:02:20;;;;;;;20.10;15.07;;;18.30;99.90;;;;;;5086874;28;20549;-63
2023/06/23 06:04:50;;;;;;;21.63;15.90;;;18.10;99.90;;;;;;5089310;28;20051;-63
2023/06/23 06:07:19;;;;;;;15.95;14.18;;;17.60;99.90;;;;;;5109718;22;20048;-59
2023/06/23 06:09:46;;;;;;;17.77;12.93;;;18.30;99.90;;;;;;5050462;28;20120;-54
2023/06/23 06:12:12;;;;;;;14.88;11.52;;;17.80;99.90;;;;;;5058218;28;20082;-55
2023/06/23 06:14:39;;;;;;;13.25;10.85;;;17.70;99.90;;;;;;5041353;28;20124;-56
2023/06/23 06:19:41;;;;;;;11.77;9.57;;;18.40;99.90;;;;;;5154908;22;20048;-55
2023/06/23 06:22:10;;;;;;;14.88;10.45;;;18.00;99.90;;;;;;5075236;28;20045;-56
2023/06/23 06:24:37;;;;;;;11.95;9.48;;;18.00;99.90;;;;;;5085856;28;20374;-56
2023/06/23 06:27:06;;;;;;;12.75;9.90;;;17.90;99.90;;;;;;5081161;28;20032;-53
2023/06/23 06:29:35;;;;;;;12.63;9.07;;;18.10;99.90;;;;;;5078995;28;20050;-55
2023/06/23 06:32:03;;;;;;;17.10;9.90;;;;;;;;;;5085757;28;20537;-55
2023/06/23 06:34:31;;;;;;;15.45;10.55;;;18.20;99.90;;;;;;5069711;28;20047;-55
2023/06/23 06:37:00;;;;;;;13.23;10.13;;;17.90;99.90;;;;;;5082363;28;20063;-52
2023/06/23 06:39:28;;;;;;;14.18;10.50;;;18.30;99.90;;;;;;5089651;28;20054;-56
2023/06/23 06:41:57;;;;;;;12.85;10.45;;;18.10;99.90;;;;;;5065941;28;20035;-53
2023/06/23 06:44:23;;;;;;;13.77;10.00;;;18.10;99.90;;;;;;5088449;28;20032;-53
2023/06/23 06:46:50;;;;;;;13.82;10.30;;;18.30;99.90;;;;;;5083090;28;20114;-55
2023/06/23 06:49:18;;;;;;;15.15;10.82;;;18.30;99.90;;;;;;5090095;28;20066;-55
2023/06/23 06:51:45;;;;;;;16.90;11.05;;;18.10;95.80;;;;;;5084729;28;20523;-53
2023/06/23 06:54:11;;;;;;;15.75;11.27;;;18.40;99.90;;;;;;5080292;28;20044;-52
2023/06/23 06:56:36;;;;;;;12.43;8.85;;;19.00;90.00;;;;;;5086855;28;20082;-56
2023/06/23 06:59:03;;;;;;;10.63;7.68;;;18.40;31.80;;;;;;5057072;28;20044;-54
2023/06/23 07:01:29;;;;;;;10.00;7.45;;;19.20;33.40;;;;;;5084071;28;20379;-55
2023/06/23 07:03:56;;;;;;;13.18;8.63;;;18.40;35.30;;;;;;5056780;28;20173;-54
2023/06/23 07:06:22;;;;;;;11.35;8.50;;;19.40;40.10;;;;;;5089092;28;20391;-52
2023/06/23 07:08:48;;;;;;;10.73;7.57;;;18.70;49.90;;;;;;5090507;28;20090;-53
2023/06/23 07:11:13;;;;;;;12.68;8.15;;;18.30;59.60;;;;;;5079961;28;20036;-56
2023/06/23 07:13:39;;;;;;;9.85;7.43;;;18.60;63.80;;;;;;5061800;28;20047;-54
2023/06/23 07:16:05;;;;;;;12.90;7.13;;;18.60;1.00;;;;;;5089553;28;20500;-55
2023/06/23 07:18:31;;;;;;;11.15;7.60;;;18.90;1.00;;;;;;5087964;28;20040;-53
2023/06/23 07:20:57;;;;;;;11.95;6.72;;;18.50;1.00;;;;;;5071716;28;20055;-53
2023/06/23 07:23:23;;;;;;;10.82;6.80;;;19.10;1.00;;;;;;5078865;28;20029;-56
2023/06/23 07:25:48;;;;;;;9.85;6.55;;;18.40;1.00;;;;;;5089745;28;20043;-55
2023/06/23 07:28:14;;;;;;;11.43;6.82;;;19.30;1.00;;;;;;5079644;28;20494;-55
2023/06/23 07:30:40;;;;;;;11.77;6.80;;;19.40;1.00;;;;;;5076864;28;20047;-53
2023/06/23 07:33:06;;;;;;;11.98;6.85;;;;;;;;;;5089371;28;20048;-55
2023/06/23 07:35:32;;;;;;;10.25;6.57;;;18.30;1.00;;;;;;5066530;28;20073;-53
2023/06/23 07:37:58;;;;;;;11.05;6.35;;;18.80;1.00;;;;;;5081263;28;20093;-53
2023/06/23 07:40:24;;;;;;;9.18;5.82;;;18.60;1.00;;;;;;5065142;28;20040;-55
2023/06/23 07:42:49;;;;;;;9.05;6.60;;;18.90;1.00;;;;;;5089670;28;20042;-56
2023/06/23 07:45:15;;;;;;;9.90;5.68;;;19.00;1.00;;;;;;5081322;28;20123;-54
2023/06/23 07:47:41;;;;;;;10.07;5.43;;;19.50;1.00;;;;;;5093272;28;20028;-56
2023/06/23 07:50:06;;;;;;;8.82;5.68;;;19.10;1.00;;;;;;5084984;28;20036;-55
2023/06/23 07:52:32;;;;;;;10.95;5.30;;;18.70;1.00;;;;;;5084634;28;20121;-54
2023/06/23 07:54:58;;;;;;;9.35;5.35;;;19.90;1.00;;;;;;5093071;28;20115;-56
2023/06/23 07:57:25;;;;;;;8.23;5.13;;;19.20;99.90;;;;;;5063474;28;20068;-53
2023/06/23 07:59:50;;;;;;;8.10;5.15;;;19.90;99.90;;;;;;5092543;28;20032;-55
2023/06/23 08:02:16;;;;;;;8.63;4.68;;;19.70;99.90;;;;;;5066473;28;20094;-54
2023/06/23 08:04:42;;;;;;;8.85;5.05;;;19.90;99.90;;;;;;5092489;28;20032;-54
2023/06/23 08:07:08;;;;;;;9.18;5.40;;;19.90;99.90;;;;;;5092922;28;20032;-56
2023/06/23 08:09:33;;;;;;;8.80;4.88;;;20.10;99.90;;;;;;5092960;28;20093;-54
2023/06/23 08:11:59;;;;;;;8.50;5.28;;;19.80;99.90;;;;;;5085160;28;20040;-57
2023/06/23 08:14:25;;;;;;;8.43;4.88;;;19.50;99.90;;;;;;5074517;28;20485;-55
2023/06/23 08:16:51;;;;;;;8.35;5.45;;;;;;;;;;5092775;28;20036;-57
2023/06/23 08:19:21;;;;;;;9.00;5.20;;;19.80;99.90;;;;;;5074324;28;20050;-55
2023/06/23 08:21:49;;;;;;;7.25;4.80;;;20.50;99.90;;;;;;5084507;28;20039;-57
2023/06/23 08:24:14;;;;;;;10.75;6.00;;;20.30;99.90;;;;;;5074005;28;20051;-57
2023/06/23 08:26:40;;;;;;;8.95;5.63;;;19.80;99.90;;;;;;5092441;28;20061;-54
2023/06/23 08:29:06;;;;;;;10.48;5.15;;;20.00;99.90;;;;;;5092261;28;20036;-56
2023/06/23 08:31:31;;;;;;;9.27;5.03;;;19.40;99.90;;;;;;5092839;28;20039;-56
2023/06/23 08:33:57;;;;;;;10.48;5.35;;;20.80;99.90;;;;;;5083492;28;20429;-55
2023/06/23 08:36:23;;;;;;;9.55;5.55;;;19.90;99.90;;;;;;5092211;28;20569;-57
2023/06/23 08:38:48;;;;;;;10.90;5.68;;;20.10;99.90;;;;;;5074273;28;20050;-56
2023/06/23 08:41:20;;;;;;;8.82;5.35;;;20.20;99.90;;;;;;5092298;28;20121;-56
2023/06/23 08:43:47;;;;;;;8.35;5.18;;;20.10;99.90;;;;;;5092053;28;20040;-56
2023/06/23 08:46:15;;;;;;;8.20;5.05;;;19.90;99.90;;;;;;5072453;28;20036;-55
2023/06/23 08:48:45;;;;;;;9.93;6.05;;;19.70;99.90;;;;;;5085808;28;20111;-53
2023/06/23 08:51:11;;;;;;;10.10;6.13;;;20.00;99.90;;;;;;5091715;28;20043;-57
2023/06/23 08:53:37;;;;;;;9.07;5.38;;;20.60;99.90;;;;;;5089357;28;20040;-56
2023/06/23 08:56:04;;;;;;;10.10;6.05;;;20.40;99.90;;;;;;5066578;28;20048;-54
2023/06/23 08:58:30;;;;;;;9.25;6.20;;;20.10;99.90;;;;;;5092110;28;20060;-55
2023/06/23 09:00:56;;;;;;;9.95;5.90;;;20.00;99.90;;;;;;5091836;28;20102;-54
2023/06/23 09:03:25;;;;;;;11.30;6.20;;;20.40;99.90;;;;;;5083174;28;20524;-55
2023/06/23 09:05:50;;;;;;;7.95;5.63;;;19.80;99.90;;;;;;5073398;28;20135;-57
2023/06/23 09:08:16;;;;;;;8.50;5.85;;;20.20;99.90;;;;;;5065536;28;20119;-58
2023/06/23 09:10:42;;;;;;;10.18;5.30;;;19.90;99.90;;;;;;5088894;28;20385;-54
2023/06/23 09:13:08;;;;;;;11.63;6.07;;;21.00;13.40;;;;;;5073156;28;20032;-54
2023/06/23 09:15:34;;;;;;;8.43;5.80;;;20.70;8.70;;;;;;5087568;28;20055;-56
2023/06/23 09:18:04;;;;;;;9.00;5.47;;;20.80;20.10;;;;;;5073595;28;20498;-57
2023/06/23 09:20:30;;;;;;;8.32;5.45;;;20.60;62.40;;;;;;5079937;28;20097;-56
2023/06/23 09:22:57;;;;;;;9.73;6.03;;;20.70;11.50;;;;;;5087082;28;20036;-55
2023/06/23 09:25:41;;;;;;;9.80;6.47;;;21.30;10.80;;;;;;5087935;28;20033;-56
2023/06/23 09:28:06;;;;;;;8.18;5.43;;;21.10;15.20;;;;;;5088390;28;20055;-54
2023/06/23 09:30:33;;;;;;;10.23;5.47;;;21.30;7.40;;;;;;5073328;28;20509;-56
2023/06/23 09:33:00;;;;;;;9.70;5.85;;;20.20;10.80;;;;;;5065438;28;20051;-57
2023/06/23 09:35:26;;;;;;;9.60;5.68;;;20.40;1.00;;;;;;5072532;28;20055;-56
2023/06/23 09:37:52;;;;;;;9.57;5.45;;;20.20;1.00;;;;;;5091265;28;20493;-56
2023/06/23 09:40:26;;;;;;;9.57;5.82;;;20.40;1.00;;;;;;5073041;28;20044;-57
2023/06/23 09:42:57;;;;;;;9.60;6.15;;;20.40;1.00;;;;;;5082474;28;20448;-55
2023/06/23 09:45:23;;;;;;;8.43;5.30;;;20.60;1.00;;;;;;5090707;28;20036;-55
2023/06/23 09:47:49;;;;;;;7.53;5.32;;;20.20;1.00;;;;;;5091327;28;20055;-56
2023/06/23 09:50:16;;;;;;;11.25;6.45;;;20.10;1.00;;;;;;5083072;28;20150;-55
2023/06/23 09:52:42;;;;;;;10.52;6.40;;;20.60;1.00;;;;;;5090706;28;20071;-54
2023/06/23 09:57:35;;;;;;;8.63;5.97;;;20.40;1.00;;;;;;5066200;28;20052;-63
2023/06/23 10:00:03;;;;;;;8.93;5.00;;;20.30;1.00;;;;;;5069755;28;20040;-63
2023/06/23 10:02:29;;;;;;;8.85;5.82;;;20.70;99.90;;;;;;5069766;28;20197;-63
2023/06/23 10:05:00;;;;;;;8.85;4.80;;;20.50;1.00;;;;;;5055442;28;20410;-63
2023/06/23 10:07:27;;;;;;;9.23;5.13;;;20.60;99.90;;;;;;5059863;28;20549;-63
2023/06/23 10:09:58;;;;;;;10.38;5.68;;;20.40;99.90;;;;;;5064490;28;20072;-63
2023/06/23 10:12:28;;;;;;;8.40;4.80;;;20.60;99.90;;;;;;5068074;28;20486;-63
2023/06/23 10:14:57;;;;;;;9.13;4.65;;;21.30;99.90;;;;;;5064894;28;20503;-63
2023/06/23 10:17:23;;;;;;;7.20;4.68;;;20.80;99.90;;;;;;5061590;28;20048;-63
2023/06/23 10:19:50;;;;;;;7.40;4.20;;;20.70;99.90;;;;;;5058057;28;20514;-63
2023/06/23 10:22:18;;;;;;;7.07;4.78;;;21.30;99.90;;;;;;5038789;28;20437;-63
2023/06/23 10:25:06;;;;;;;8.73;4.35;;;20.70;99.90;;;;;;5063542;28;20040;-63
2023/06/23 10:27:34;;;;;;;7.15;4.03;;;20.30;99.90;;;;;;5066583;28;20124;-63
2023/06/23 10:30:02;;;;;;;6.80;4.30;;;21.00;93.40;;;;;;5069631;28;20048;-63
2023/06/23 10:32:29;;;;;;;9.15;5.07;;;20.20;71.10;;;;;;5060214;28;20161;-63
2023/06/23 10:35:08;;;;;;;7.13;4.40;;;23.60;99.90;;;;;;5064602;28;20507;-63
2023/06/23 10:37:35;;;;;;;6.82;3.97;;;20.70;99.90;;;;;;5042114;28;20553;-63
2023/06/23 10:40:05;;;;;;;7.32;4.90;;;21.40;1.00;;;;;;5057749;28;20421;-63
2023/06/23 10:42:34;;;;;;;10.50;4.32;;;21.40;80.40;;;;;;5026775;28;20049;-63
2023/06/23 10:45:01;;;;;;;7.43;5.07;;;21.20;99.90;;;;;;5057260;28;20036;-63
2023/06/23 10:47:27;;;;;;;9.25;4.75;;;21.30;99.90;;;;;;5061588;28;20044;-63
2023/06/23 10:49:55;;;;;;;7.70;4.72;;;21.40;99.90;;;;;;5066484;28;20036;-63
2023/06/23 10:52:21;;;;;;;8.70;5.13;;;21.20;99.90;;;;;;5066612;28;20053;-63
2023/06/23 10:54:47;;;;;;;7.55;4.90;;;21.00;99.90;;;;;;5047628;28;20068;-63
2023/06/23 10:57:14;;;;;;;7.05;4.70;;;21.40;86.80;;;;;;5051132;28;20504;-63
2023/06/23 11:00:00;;;;;;;7.30;4.93;;;21.70;67.70;;;;;;5068202;28;20029;-63
2023/06/23 11:02:26;;;;;;;8.90;4.20;;;21.70;1.00;;;;;;5057449;28;20120;-63
2023/06/23 11:04:55;;;;;;;6.93;3.75;;;21.50;99.90;;;;;;5035149;28;20064;-63
2023/06/23 11:07:21;;;;;;;7.13;4.07;;;21.50;99.90;;;;;;5057199;28;20119;-63
2023/06/23 11:09:58;;;;;;;7.40;4.70;;;21.60;99.90;;;;;;5050149;28;20052;-63
2023/06/23 11:12:34;;;;;;;7.32;4.00;;;18.60;99.90;;;;;;5052643;28;20499;-63
2023/06/23 11:15:03;;;;;;;7.55;4.30;;;21.50;99.90;;;;;;5063061;28;20036;-63
2023/06/23 11:17:29;;;;;;;9.15;3.85;;;21.60;99.90;;;;;;5064097;28;20050;-63
2023/06/23 11:19:57;;;;;;;5.55;2.90;;;20.70;99.90;;;;;;5067916;28;20123;-63
2023/06/23 11:22:23;;;;;;;5.53;2.95;;;21.80;1.00;;;;;;5031510;28;20042;-63
2023/06/23 11:24:54;;;;;;;6.50;3.75;;;21.70;1.00;;;;;;5072373;28;20036;-63
2023/06/23 11:27:20;;;;;;;7.32;3.40;;;20.80;96.50;;;;;;5047305;28;20044;-65
2023/06/23 11:30:16;;;;;;;8.50;3.47;;;20.70;1.00;;;;;;5044465;28;20115;-63
2023/06/23 11:32:42;;;;;;;10.38;3.45;;;21.10;1.00;;;;;;5051572;28;20044;-63
2023/06/23 11:35:09;;;;;;;7.55;3.42;;;21.30;1.00;;;;;;5039671;28;20410;-63
2023/06/23 11:37:36;;;;;;;6.20;3.53;;;21.90;1.00;;;;;;5044033;28;20051;-63
2023/06/23 11:40:04;;;;;;;8.68;3.25;;;21.10;1.00;;;;;;5088115;22;20043;-55
2023/06/23 11:42:30;;;;;;;5.55;3.15;;;22.00;46.10;;;;;;5043041;28;20071;-56
2023/06/23 11:44:56;;;;;;;6.55;3.15;;;22.10;1.00;;;;;;5073414;28;20033;-54
2023/06/23 11:47:28;;;;;;;7.75;3.40;;;21.70;1.00;;;;;;5062343;28;20575;-54
2023/06/23 11:49:54;;;;;;;9.30;3.08;;;22.00;1.00;;;;;;5074025;28;20033;-56
2023/06/23 11:52:21;;;;;;;6.30;3.30;;;21.80;99.90;;;;;;5054098;28;20044;-54
2023/06/23 11:54:51;;;;;;;7.78;3.33;;;22.10;99.90;;;;;;5066048;28;20521;-55
2023/06/23 11:57:21;;;;;;;8.43;3.95;;;22.40;99.90;;;;;;5138710;22;20259;-63
2023/06/23 11:59:47;;;;;;;6.05;3.40;;;22.70;1.00;;;;;;5078664;28;20055;-64
2023/06/23 12:02:14;;;;;;;7.32;3.30;;;22.80;1.00;;;;;;5053894;28;20055;-64
2023/06/23 12:04:41;;;;;;;6.28;2.83;;;22.70;99.90;;;;;;5091430;28;20043;-65
2023/06/23 12:07:08;;;;;;;6.50;3.38;;;23.00;99.90;;;;;;5089063;28;20432;-64
2023/06/23 12:09:39;;;;;;;6.70;3.28;;;23.00;99.90;;;;;;5091639;28;20058;-64
2023/06/23 12:12:05;;;;;;;6.22;3.40;;;23.00;99.90;;;;;;5091530;28;20079;-64
2023/06/23 12:14:36;;;;;;;7.00;3.22;;;23.20;99.90;;;;;;5072982;28;20056;-64
2023/06/23 12:17:12;;;;;;;7.40;3.28;;;23.40;99.90;;;;;;5091620;28;20044;-65
2023/06/23 12:19:38;;;;;;;7.07;3.47;;;23.60;99.90;;;;;;5090797;28;20506;-64
2023/06/23 12:22:16;;;;;;;5.97;3.42;;;23.40;99.90;;;;;;5090963;28;20036;-64
2023/06/23 12:24:42;;;;;;;7.32;3.40;;;23.50;99.90;;;;;;5082310;28;20493;-64
2023/06/23 12:27:09;;;;;;;7.63;2.78;;;23.80;99.90;;;;;;5091191;28;20119;-64
2023/06/23 12:29:36;;;;;;;6.32;2.88;;;24.00;99.90;;;;;;5071915;28;20052;-64
2023/06/23 12:32:03;;;;;;;6.22;3.13;;;23.90;99.90;;;;;;5082455;28;20052;-64
2023/06/23 12:34:36;;;;;;;8.38;3.10;;;24.90;99.90;;;;;;5072424;28;20059;-65
2023/06/23 12:37:10;;;;;;;5.47;2.92;;;23.70;99.90;;;;;;5073305;28;20101;-64
2023/06/23 12:39:36;;;;;;;6.63;2.83;;;24.00;99.90;;;;;;5085203;28;20039;-64
2023/06/23 12:42:01;;;;;;;6.22;3.10;;;25.10;99.90;;;;;;5072724;28;20040;-64
2023/06/23 12:44:29;;;;;;;5.35;2.90;;;26.10;99.90;;;;;;5090445;28;20070;-65
2023/06/23 12:46:57;;;;;;;5.53;3.00;;;27.70;99.90;;;;;;5072491;28;20036;-64
2023/06/23 12:49:31;;;;;;;5.60;2.75;;;29.80;99.90;;;;;;5083255;28;20071;-64
2023/06/23 12:51:57;;;;;;;6.35;2.90;;;31.30;99.90;;;;;;5088398;28;20157;-65